sensor_id;sensor_type;location;lat;lon;timestamp;temperature;humidity
5520;DHT22;2782;52.362;10.012;2022-12-18T00:00:10;19.70;45.90
5520;DHT22;2782;52.362;10.012;2022-12-18T00:01:17;19.70;45.80
5520;DHT22;2782;52.362;10.012;2022-12-18T00:02:18;19.70;45.90
5520;DHT22;2782;52.362;10.012;2022-12-18T00:03:19;19.70;45.60
5520;DHT22;2782;52.362;10.012;2022-12-18T00:04:22;19.70;45.60
5520;DHT22;2782;52.362;10.012;2022-12-18T00:05:24;19.70;45.00
5520;DHT22;2782;52.362;10.012;2022-12-18T00:06:26;19.70;44.30
5520;DHT22;2782;52.362;10.012;2022-12-18T00:07:29;19.70;43.90
5520;DHT22;2782;52.362;10.012;2022-12-18T00:08:30;19.60;44.10
5520;DHT22;2782;52.362;10.012;2022-12-18T00:09:32;19.60;44.70
5520;DHT22;2782;52.362;10.012;2022-12-18T00:10:33;19.60;45.10
5520;DHT22;2782;52.362;10.012;2022-12-18T00:11:34;19.60;45.20
5520;DHT22;2782;52.362;10.012;2022-12-18T00:12:35;19.60;45.20
5520;DHT22;2782;52.362;10.012;2022-12-18T00:13:37;19.60;45.30
5520;DHT22;2782;52.362;10.012;2022-12-18T00:14:38;19.60;45.40
5520;DHT22;2782;52.362;10.012;2022-12-18T00:15:39;19.60;45.40
5520;DHT22;2782;52.362;10.012;2022-12-18T00:16:45;19.60;45.40
5520;DHT22;2782;52.362;10.012;2022-12-18T00:17:47;19.60;45.40
5520;DHT22;2782;52.362;10.012;2022-12-18T00:18:47;19.60;45.50
5520;DHT22;2782;52.362;10.012;2022-12-18T00:19:49;19.60;45.50
5520;DHT22;2782;52.362;10.012;2022-12-18T00:20:51;19.60;45.50
5520;DHT22;2782;52.362;10.012;2022-12-18T00:21:51;19.60;45.50
5520;DHT22;2782;52.362;10.012;2022-12-18T00:22:55;19.60;45.60
5520;DHT22;2782;52.362;10.012;2022-12-18T00:23:56;19.60;45.60
5520;DHT22;2782;52.362;10.012;2022-12-18T00:24:58;19.50;45.50
5520;DHT22;2782;52.362;10.012;2022-12-18T00:25:59;19.50;45.50
5520;DHT22;2782;52.362;10.012;2022-12-18T00:27:02;19.50;45.60
5520;DHT22;2782;52.362;10.012;2022-12-18T00:28:04;19.50;45.50
5520;DHT22;2782;52.362;10.012;2022-12-18T00:29:06;19.50;45.60
5520;DHT22;2782;52.362;10.012;2022-12-18T00:30:09;19.50;45.50
5520;DHT22;2782;52.362;10.012;2022-12-18T00:31:12;19.50;45.50
5520;DHT22;2782;52.362;10.012;2022-12-18T00:32:13;19.50;45.50
5520;DHT22;2782;52.362;10.012;2022-12-18T00:33:15;19.50;45.50
5520;DHT22;2782;52.362;10.012;2022-12-18T00:34:17;19.50;46.10
5520;DHT22;2782;52.362;10.012;2022-12-18T00:35:19;19.50;45.50
5520;DHT22;2782;52.362;10.012;2022-12-18T00:36:21;19.50;45.50
5520;DHT22;2782;52.362;10.012;2022-12-18T00:37:23;19.50;45.50
5520;DHT22;2782;52.362;10.012;2022-12-18T00:38:25;19.50;45.50
5520;DHT22;2782;52.362;10.012;2022-12-18T00:39:27;19.50;45.50
5520;DHT22;2782;52.362;10.012;2022-12-18T00:40:27;19.50;45.60
5520;DHT22;2782;52.362;10.012;2022-12-18T00:41:29;19.50;46.10
5520;DHT22;2782;52.362;10.012;2022-12-18T00:42:49;19.50;45.50
5520;DHT22;2782;52.362;10.012;2022-12-18T00:43:58;19.50;44.30
5520;DHT22;2782;52.362;10.012;2022-12-18T00:44:59;19.50;44.70
5520;DHT22;2782;52.362;10.012;2022-12-18T00:46:01;19.40;44.90
5520;DHT22;2782;52.362;10.012;2022-12-18T00:47:01;19.40;45.10
5520;DHT22;2782;52.362;10.012;2022-12-18T00:48:04;19.40;45.20
5520;DHT22;2782;52.362;10.012;2022-12-18T00:49:04;19.40;45.30
5520;DHT22;2782;52.362;10.012;2022-12-18T00:50:09;19.40;45.30
5520;DHT22;2782;52.362;10.012;2022-12-18T00:51:10;19.40;45.40
5520;DHT22;2782;52.362;10.012;2022-12-18T00:52:11;19.40;45.30
5520;DHT22;2782;52.362;10.012;2022-12-18T00:53:12;19.40;45.40
5520;DHT22;2782;52.362;10.012;2022-12-18T00:54:15;19.40;45.40
5520;DHT22;2782;52.362;10.012;2022-12-18T00:55:17;19.40;45.40
5520;DHT22;2782;52.362;10.012;2022-12-18T00:56:19;19.40;45.40
5520;DHT22;2782;52.362;10.012;2022-12-18T00:57:20;19.40;45.40
5520;DHT22;2782;52.362;10.012;2022-12-18T00:58:22;19.40;45.40
5520;DHT22;2782;52.362;10.012;2022-12-18T00:59:23;19.40;45.40
5520;DHT22;2782;52.362;10.012;2022-12-18T01:00:25;19.40;45.30
5520;DHT22;2782;52.362;10.012;2022-12-18T01:01:26;19.40;45.40
5520;DHT22;2782;52.362;10.012;2022-12-18T01:02:27;19.30;45.30
5520;DHT22;2782;52.362;10.012;2022-12-18T01:03:28;19.40;45.30
5520;DHT22;2782;52.362;10.012;2022-12-18T01:04:31;19.30;45.30
5520;DHT22;2782;52.362;10.012;2022-12-18T01:05:33;19.30;45.30
5520;DHT22;2782;52.362;10.012;2022-12-18T01:06:35;19.30;45.30
5520;DHT22;2782;52.362;10.012;2022-12-18T01:07:36;19.30;45.30
5520;DHT22;2782;52.362;10.012;2022-12-18T01:08:38;19.30;45.20
5520;DHT22;2782;52.362;10.012;2022-12-18T01:09:42;19.30;45.20
5520;DHT22;2782;52.362;10.012;2022-12-18T01:10:45;19.30;45.20
5520;DHT22;2782;52.362;10.012;2022-12-18T01:11:46;19.30;45.20
5520;DHT22;2782;52.362;10.012;2022-12-18T01:12:48;19.30;45.20
5520;DHT22;2782;52.362;10.012;2022-12-18T01:13:49;19.30;45.20
5520;DHT22;2782;52.362;10.012;2022-12-18T01:14:52;19.30;45.20
5520;DHT22;2782;52.362;10.012;2022-12-18T01:15:53;19.30;45.20
5520;DHT22;2782;52.362;10.012;2022-12-18T01:16:55;19.30;45.20
5520;DHT22;2782;52.362;10.012;2022-12-18T01:17:56;19.30;45.20
5520;DHT22;2782;52.362;10.012;2022-12-18T01:18:58;19.30;45.20
5520;DHT22;2782;52.362;10.012;2022-12-18T01:19:59;19.30;45.10
5520;DHT22;2782;52.362;10.012;2022-12-18T01:21:02;19.30;45.20
5520;DHT22;2782;52.362;10.012;2022-12-18T01:22:05;19.20;45.00
5520;DHT22;2782;52.362;10.012;2022-12-18T01:23:07;19.20;45.00
5520;DHT22;2782;52.362;10.012;2022-12-18T01:24:10;19.20;45.00
5520;DHT22;2782;52.362;10.012;2022-12-18T01:25:14;19.20;45.00
5520;DHT22;2782;52.362;10.012;2022-12-18T01:26:15;19.20;45.10
5520;DHT22;2782;52.362;10.012;2022-12-18T01:27:17;19.20;45.00
5520;DHT22;2782;52.362;10.012;2022-12-18T01:28:18;19.20;45.20
5520;DHT22;2782;52.362;10.012;2022-12-18T01:29:20;19.20;45.10
5520;DHT22;2782;52.362;10.012;2022-12-18T01:30:21;19.20;45.10
5520;DHT22;2782;52.362;10.012;2022-12-18T01:31:25;19.20;45.20
5520;DHT22;2782;52.362;10.012;2022-12-18T01:32:26;19.20;45.20
5520;DHT22;2782;52.362;10.012;2022-12-18T01:33:30;19.20;45.20
5520;DHT22;2782;52.362;10.012;2022-12-18T01:34:31;19.20;45.20
5520;DHT22;2782;52.362;10.012;2022-12-18T01:35:40;19.20;45.10
5520;DHT22;2782;52.362;10.012;2022-12-18T01:36:41;19.20;45.20
5520;DHT22;2782;52.362;10.012;2022-12-18T01:37:43;19.20;45.20
5520;DHT22;2782;52.362;10.012;2022-12-18T01:38:44;19.10;45.10
5520;DHT22;2782;52.362;10.012;2022-12-18T01:39:46;19.20;45.20
5520;DHT22;2782;52.362;10.012;2022-12-18T01:40:48;19.20;45.80
5520;DHT22;2782;52.362;10.012;2022-12-18T01:41:50;19.10;45.10
5520;DHT22;2782;52.362;10.012;2022-12-18T01:43:03;19.10;45.10
5520;DHT22;2782;52.362;10.012;2022-12-18T01:45:39;19.10;45.10
5520;DHT22;2782;52.362;10.012;2022-12-18T01:46:41;19.10;45.00
5520;DHT22;2782;52.362;10.012;2022-12-18T01:47:44;19.10;45.10
5520;DHT22;2782;52.362;10.012;2022-12-18T01:48:48;19.10;45.10
5520;DHT22;2782;52.362;10.012;2022-12-18T01:49:51;19.10;45.20
5520;DHT22;2782;52.362;10.012;2022-12-18T01:50:52;19.10;45.20
5520;DHT22;2782;52.362;10.012;2022-12-18T01:51:54;19.10;45.10
5520;DHT22;2782;52.362;10.012;2022-12-18T01:52:58;19.10;45.20
5520;DHT22;2782;52.362;10.012;2022-12-18T01:54:01;19.10;45.20
5520;DHT22;2782;52.362;10.012;2022-12-18T01:55:04;19.10;45.10
5520;DHT22;2782;52.362;10.012;2022-12-18T01:56:10;19.10;45.10
5520;DHT22;2782;52.362;10.012;2022-12-18T01:57:13;19.10;45.10
5520;DHT22;2782;52.362;10.012;2022-12-18T01:58:17;19.10;45.20
5520;DHT22;2782;52.362;10.012;2022-12-18T01:59:19;19.10;45.20
5520;DHT22;2782;52.362;10.012;2022-12-18T02:00:22;19.00;45.10
5520;DHT22;2782;52.362;10.012;2022-12-18T02:03:28;19.00;45.00
5520;DHT22;2782;52.362;10.012;2022-12-18T02:04:29;19.00;45.10
5520;DHT22;2782;52.362;10.012;2022-12-18T02:05:46;19.00;45.10
5520;DHT22;2782;52.362;10.012;2022-12-18T02:06:52;19.00;45.10
5520;DHT22;2782;52.362;10.012;2022-12-18T02:08:01;19.00;45.00
5520;DHT22;2782;52.362;10.012;2022-12-18T02:09:10;19.00;45.00
5520;DHT22;2782;52.362;10.012;2022-12-18T02:10:17;19.00;45.10
5520;DHT22;2782;52.362;10.012;2022-12-18T02:11:30;19.00;45.10
5520;DHT22;2782;52.362;10.012;2022-12-18T02:12:38;18.90;45.10
5520;DHT22;2782;52.362;10.012;2022-12-18T02:13:49;18.90;45.00
5520;DHT22;2782;52.362;10.012;2022-12-18T02:14:57;18.90;45.00
5520;DHT22;2782;52.362;10.012;2022-12-18T02:16:04;18.90;45.10
5520;DHT22;2782;52.362;10.012;2022-12-18T02:17:13;18.90;45.10
5520;DHT22;2782;52.362;10.012;2022-12-18T02:18:20;18.90;45.10
5520;DHT22;2782;52.362;10.012;2022-12-18T02:19:44;18.90;45.10
5520;DHT22;2782;52.362;10.012;2022-12-18T02:20:52;18.90;45.00
5520;DHT22;2782;52.362;10.012;2022-12-18T02:22:01;18.90;45.00
5520;DHT22;2782;52.362;10.012;2022-12-18T02:23:15;18.90;45.10
5520;DHT22;2782;52.362;10.012;2022-12-18T02:24:28;18.80;45.00
5520;DHT22;2782;52.362;10.012;2022-12-18T02:26:00;18.80;45.00
5520;DHT22;2782;52.362;10.012;2022-12-18T02:27:04;18.80;45.00
5520;DHT22;2782;52.362;10.012;2022-12-18T02:28:09;18.80;45.00
5520;DHT22;2782;52.362;10.012;2022-12-18T02:29:13;18.80;45.00
5520;DHT22;2782;52.362;10.012;2022-12-18T02:30:17;18.80;45.00
5520;DHT22;2782;52.362;10.012;2022-12-18T02:31:21;18.80;45.00
5520;DHT22;2782;52.362;10.012;2022-12-18T02:32:27;18.80;45.10
5520;DHT22;2782;52.362;10.012;2022-12-18T02:33:29;18.80;45.00
5520;DHT22;2782;52.362;10.012;2022-12-18T02:34:36;18.80;45.00
5520;DHT22;2782;52.362;10.012;2022-12-18T02:35:39;18.80;45.00
5520;DHT22;2782;52.362;10.012;2022-12-18T02:36:43;18.80;45.00
5520;DHT22;2782;52.362;10.012;2022-12-18T02:37:46;18.80;45.00
5520;DHT22;2782;52.362;10.012;2022-12-18T02:38:49;18.70;45.00
5520;DHT22;2782;52.362;10.012;2022-12-18T02:39:52;18.80;45.00
5520;DHT22;2782;52.362;10.012;2022-12-18T02:40:56;18.70;44.90
5520;DHT22;2782;52.362;10.012;2022-12-18T02:41:59;18.80;44.90
5520;DHT22;2782;52.362;10.012;2022-12-18T02:43:06;18.70;44.90
5520;DHT22;2782;52.362;10.012;2022-12-18T02:44:09;18.70;44.90
5520;DHT22;2782;52.362;10.012;2022-12-18T02:45:11;18.70;44.90
5520;DHT22;2782;52.362;10.012;2022-12-18T02:46:29;18.70;44.90
5520;DHT22;2782;52.362;10.012;2022-12-18T02:47:34;18.70;45.00
5520;DHT22;2782;52.362;10.012;2022-12-18T02:48:37;18.70;44.90
5520;DHT22;2782;52.362;10.012;2022-12-18T02:49:44;18.70;44.90
5520;DHT22;2782;52.362;10.012;2022-12-18T02:50:54;18.70;44.90
5520;DHT22;2782;52.362;10.012;2022-12-18T02:52:04;18.70;44.90
5520;DHT22;2782;52.362;10.012;2022-12-18T02:53:10;18.70;45.50
5520;DHT22;2782;52.362;10.012;2022-12-18T02:54:23;18.70;44.90
5520;DHT22;2782;52.362;10.012;2022-12-18T02:55:43;18.60;44.80
5520;DHT22;2782;52.362;10.012;2022-12-18T02:56:50;18.60;44.90
5520;DHT22;2782;52.362;10.012;2022-12-18T02:57:56;18.60;44.80
5520;DHT22;2782;52.362;10.012;2022-12-18T02:59:00;18.60;44.90
5520;DHT22;2782;52.362;10.012;2022-12-18T03:00:06;18.60;44.90
5520;DHT22;2782;52.362;10.012;2022-12-18T03:01:13;18.60;44.90
5520;DHT22;2782;52.362;10.012;2022-12-18T03:02:21;18.60;44.90
5520;DHT22;2782;52.362;10.012;2022-12-18T03:03:29;18.60;44.90
5520;DHT22;2782;52.362;10.012;2022-12-18T03:04:38;18.50;44.90
5520;DHT22;2782;52.362;10.012;2022-12-18T03:05:45;18.50;44.90
5520;DHT22;2782;52.362;10.012;2022-12-18T03:06:49;18.50;45.30
5520;DHT22;2782;52.362;10.012;2022-12-18T03:07:57;18.50;44.80
5520;DHT22;2782;52.362;10.012;2022-12-18T03:09:00;18.50;44.80
5520;DHT22;2782;52.362;10.012;2022-12-18T03:10:06;18.50;44.80
5520;DHT22;2782;52.362;10.012;2022-12-18T03:11:10;18.50;44.80
5520;DHT22;2782;52.362;10.012;2022-12-18T03:12:16;18.50;44.90
5520;DHT22;2782;52.362;10.012;2022-12-18T03:13:30;18.50;44.90
5520;DHT22;2782;52.362;10.012;2022-12-18T03:14:34;18.50;45.00
5520;DHT22;2782;52.362;10.012;2022-12-18T03:15:39;18.40;44.80
5520;DHT22;2782;52.362;10.012;2022-12-18T03:16:44;18.40;44.80
5520;DHT22;2782;52.362;10.012;2022-12-18T03:17:51;18.40;44.80
5520;DHT22;2782;52.362;10.012;2022-12-18T03:18:56;18.40;44.90
5520;DHT22;2782;52.362;10.012;2022-12-18T03:20:04;18.40;44.90
5520;DHT22;2782;52.362;10.012;2022-12-18T03:21:12;18.40;44.90
5520;DHT22;2782;52.362;10.012;2022-12-18T03:22:16;18.40;44.80
5520;DHT22;2782;52.362;10.012;2022-12-18T03:23:21;18.40;44.80
5520;DHT22;2782;52.362;10.012;2022-12-18T03:24:23;18.40;44.90
5520;DHT22;2782;52.362;10.012;2022-12-18T03:25:27;18.40;45.00
5520;DHT22;2782;52.362;10.012;2022-12-18T03:26:29;18.40;45.00
5520;DHT22;2782;52.362;10.012;2022-12-18T03:27:33;18.40;44.90
5520;DHT22;2782;52.362;10.012;2022-12-18T03:28:42;18.40;44.80
5520;DHT22;2782;52.362;10.012;2022-12-18T03:29:48;18.40;44.90
5520;DHT22;2782;52.362;10.012;2022-12-18T03:30:55;18.40;44.80
5520;DHT22;2782;52.362;10.012;2022-12-18T03:32:02;18.40;44.90
5520;DHT22;2782;52.362;10.012;2022-12-18T03:33:08;18.40;44.90
5520;DHT22;2782;52.362;10.012;2022-12-18T03:34:15;18.40;44.90
5520;DHT22;2782;52.362;10.012;2022-12-18T03:35:21;18.40;44.90
5520;DHT22;2782;52.362;10.012;2022-12-18T03:36:24;18.30;44.90
5520;DHT22;2782;52.362;10.012;2022-12-18T03:37:25;18.40;44.90
5520;DHT22;2782;52.362;10.012;2022-12-18T03:38:26;18.40;44.90
5520;DHT22;2782;52.362;10.012;2022-12-18T03:39:27;18.40;45.00
5520;DHT22;2782;52.362;10.012;2022-12-18T03:40:35;18.30;44.90
5520;DHT22;2782;52.362;10.012;2022-12-18T03:41:44;18.30;44.90
5520;DHT22;2782;52.362;10.012;2022-12-18T03:42:48;18.30;44.90
5520;DHT22;2782;52.362;10.012;2022-12-18T03:43:54;18.30;44.90
5520;DHT22;2782;52.362;10.012;2022-12-18T03:45:03;18.30;44.90
5520;DHT22;2782;52.362;10.012;2022-12-18T03:46:08;18.30;44.90
5520;DHT22;2782;52.362;10.012;2022-12-18T03:47:15;18.30;44.90
5520;DHT22;2782;52.362;10.012;2022-12-18T03:48:20;18.30;44.90
5520;DHT22;2782;52.362;10.012;2022-12-18T03:49:30;18.30;45.00
5520;DHT22;2782;52.362;10.012;2022-12-18T03:50:41;18.30;44.90
5520;DHT22;2782;52.362;10.012;2022-12-18T03:51:48;18.30;44.90
5520;DHT22;2782;52.362;10.012;2022-12-18T03:52:54;18.30;44.80
5520;DHT22;2782;52.362;10.012;2022-12-18T03:53:58;18.30;44.90
5520;DHT22;2782;52.362;10.012;2022-12-18T03:55:01;18.30;44.90
5520;DHT22;2782;52.362;10.012;2022-12-18T03:56:04;18.20;44.90
5520;DHT22;2782;52.362;10.012;2022-12-18T03:57:08;18.20;44.90
5520;DHT22;2782;52.362;10.012;2022-12-18T03:58:13;18.20;44.90
5520;DHT22;2782;52.362;10.012;2022-12-18T03:59:19;18.20;44.90
5520;DHT22;2782;52.362;10.012;2022-12-18T04:00:21;18.20;44.80
5520;DHT22;2782;52.362;10.012;2022-12-18T04:01:25;18.20;44.80
5520;DHT22;2782;52.362;10.012;2022-12-18T04:02:31;18.20;44.90
5520;DHT22;2782;52.362;10.012;2022-12-18T04:03:34;18.20;44.90
5520;DHT22;2782;52.362;10.012;2022-12-18T04:04:38;18.20;44.90
5520;DHT22;2782;52.362;10.012;2022-12-18T04:05:41;18.20;44.80
5520;DHT22;2782;52.362;10.012;2022-12-18T04:06:45;18.20;44.90
5520;DHT22;2782;52.362;10.012;2022-12-18T04:07:49;18.20;45.00
5520;DHT22;2782;52.362;10.012;2022-12-18T04:08:52;18.20;44.90
5520;DHT22;2782;52.362;10.012;2022-12-18T04:09:56;18.20;44.90
5520;DHT22;2782;52.362;10.012;2022-12-18T04:10:57;18.20;44.90
5520;DHT22;2782;52.362;10.012;2022-12-18T04:11:58;18.20;45.50
5520;DHT22;2782;52.362;10.012;2022-12-18T04:13:00;18.10;44.90
5520;DHT22;2782;52.362;10.012;2022-12-18T04:14:01;18.10;44.90
5520;DHT22;2782;52.362;10.012;2022-12-18T04:15:04;18.10;44.80
5520;DHT22;2782;52.362;10.012;2022-12-18T04:16:06;18.10;44.80
5520;DHT22;2782;52.362;10.012;2022-12-18T04:17:08;18.10;44.80
5520;DHT22;2782;52.362;10.012;2022-12-18T04:18:08;18.10;44.90
5520;DHT22;2782;52.362;10.012;2022-12-18T04:19:10;18.10;44.80
5520;DHT22;2782;52.362;10.012;2022-12-18T04:20:11;18.10;44.90
5520;DHT22;2782;52.362;10.012;2022-12-18T04:21:13;18.10;44.90
5520;DHT22;2782;52.362;10.012;2022-12-18T04:22:13;18.10;44.90
5520;DHT22;2782;52.362;10.012;2022-12-18T04:23:15;18.10;44.90
5520;DHT22;2782;52.362;10.012;2022-12-18T04:24:16;18.00;44.80
5520;DHT22;2782;52.362;10.012;2022-12-18T04:25:18;18.10;44.80
5520;DHT22;2782;52.362;10.012;2022-12-18T04:26:18;18.00;44.70
5520;DHT22;2782;52.362;10.012;2022-12-18T04:27:20;18.00;44.80
5520;DHT22;2782;52.362;10.012;2022-12-18T04:28:21;18.00;44.80
5520;DHT22;2782;52.362;10.012;2022-12-18T04:29:23;18.00;44.80
5520;DHT22;2782;52.362;10.012;2022-12-18T04:30:25;18.00;44.80
5520;DHT22;2782;52.362;10.012;2022-12-18T04:31:26;18.00;44.70
5520;DHT22;2782;52.362;10.012;2022-12-18T04:32:27;18.00;44.90
5520;DHT22;2782;52.362;10.012;2022-12-18T04:33:29;18.00;44.70
5520;DHT22;2782;52.362;10.012;2022-12-18T04:34:29;18.00;44.70
5520;DHT22;2782;52.362;10.012;2022-12-18T04:35:31;18.00;44.90
5520;DHT22;2782;52.362;10.012;2022-12-18T04:36:32;18.00;44.90
5520;DHT22;2782;52.362;10.012;2022-12-18T04:37:34;18.00;44.80
5520;DHT22;2782;52.362;10.012;2022-12-18T04:38:35;18.00;44.80
5520;DHT22;2782;52.362;10.012;2022-12-18T04:39:37;18.00;44.80
5520;DHT22;2782;52.362;10.012;2022-12-18T04:40:38;18.00;44.80
5520;DHT22;2782;52.362;10.012;2022-12-18T04:41:39;18.00;44.80
5520;DHT22;2782;52.362;10.012;2022-12-18T04:42:41;17.90;44.80
5520;DHT22;2782;52.362;10.012;2022-12-18T04:43:43;18.00;44.80
5520;DHT22;2782;52.362;10.012;2022-12-18T04:44:43;17.90;44.70
5520;DHT22;2782;52.362;10.012;2022-12-18T04:45:47;17.90;44.80
5520;DHT22;2782;52.362;10.012;2022-12-18T04:46:47;17.90;44.80
5520;DHT22;2782;52.362;10.012;2022-12-18T04:47:49;17.90;44.80
5520;DHT22;2782;52.362;10.012;2022-12-18T04:48:49;17.90;44.80
5520;DHT22;2782;52.362;10.012;2022-12-18T04:49:51;17.90;44.80
5520;DHT22;2782;52.362;10.012;2022-12-18T04:50:52;17.90;44.80
5520;DHT22;2782;52.362;10.012;2022-12-18T04:51:53;17.90;44.80
5520;DHT22;2782;52.362;10.012;2022-12-18T04:52:54;17.90;44.70
5520;DHT22;2782;52.362;10.012;2022-12-18T04:53:56;17.90;44.70
5520;DHT22;2782;52.362;10.012;2022-12-18T04:54:57;17.90;44.70
5520;DHT22;2782;52.362;10.012;2022-12-18T04:56:03;17.90;44.70
5520;DHT22;2782;52.362;10.012;2022-12-18T04:57:04;17.90;44.80
5520;DHT22;2782;52.362;10.012;2022-12-18T04:58:06;17.90;44.80
5520;DHT22;2782;52.362;10.012;2022-12-18T04:59:07;17.90;44.70
5520;DHT22;2782;52.362;10.012;2022-12-18T05:00:09;17.90;44.70
5520;DHT22;2782;52.362;10.012;2022-12-18T05:01:13;17.80;44.70
5520;DHT22;2782;52.362;10.012;2022-12-18T05:02:15;17.80;44.80
5520;DHT22;2782;52.362;10.012;2022-12-18T05:03:15;17.90;45.30
5520;DHT22;2782;52.362;10.012;2022-12-18T05:04:17;17.90;45.50
5520;DHT22;2782;52.362;10.012;2022-12-18T05:05:18;17.90;45.60
5520;DHT22;2782;52.362;10.012;2022-12-18T05:06:20;17.90;45.60
5520;DHT22;2782;52.362;10.012;2022-12-18T05:07:20;17.90;45.50
5520;DHT22;2782;52.362;10.012;2022-12-18T05:08:22;18.00;45.60
5520;DHT22;2782;52.362;10.012;2022-12-18T05:09:23;18.00;45.50
5520;DHT22;2782;52.362;10.012;2022-12-18T05:10:25;18.00;45.50
5520;DHT22;2782;52.362;10.012;2022-12-18T05:11:26;18.10;45.50
5520;DHT22;2782;52.362;10.012;2022-12-18T05:12:28;18.10;45.50
5520;DHT22;2782;52.362;10.012;2022-12-18T05:13:29;18.10;45.40
5520;DHT22;2782;52.362;10.012;2022-12-18T05:14:31;18.10;45.40
5520;DHT22;2782;52.362;10.012;2022-12-18T05:15:32;18.20;45.40
5520;DHT22;2782;52.362;10.012;2022-12-18T05:16:35;18.20;45.40
5520;DHT22;2782;52.362;10.012;2022-12-18T05:17:36;18.20;45.40
5520;DHT22;2782;52.362;10.012;2022-12-18T05:18:38;18.20;45.30
5520;DHT22;2782;52.362;10.012;2022-12-18T05:19:38;18.20;45.30
5520;DHT22;2782;52.362;10.012;2022-12-18T05:20:40;18.30;45.40
5520;DHT22;2782;52.362;10.012;2022-12-18T05:21:41;18.30;45.30
5520;DHT22;2782;52.362;10.012;2022-12-18T05:22:42;18.30;45.30
5520;DHT22;2782;52.362;10.012;2022-12-18T05:23:43;18.30;45.30
5520;DHT22;2782;52.362;10.012;2022-12-18T05:24:45;18.30;45.30
5520;DHT22;2782;52.362;10.012;2022-12-18T05:25:49;18.30;45.30
5520;DHT22;2782;52.362;10.012;2022-12-18T05:26:51;18.40;45.40
5520;DHT22;2782;52.362;10.012;2022-12-18T05:27:52;18.40;45.40
5520;DHT22;2782;52.362;10.012;2022-12-18T05:28:54;18.40;45.40
5520;DHT22;2782;52.362;10.012;2022-12-18T05:29:55;18.40;45.40
5520;DHT22;2782;52.362;10.012;2022-12-18T05:30:58;18.40;45.40
5520;DHT22;2782;52.362;10.012;2022-12-18T05:32:01;18.40;45.40
5520;DHT22;2782;52.362;10.012;2022-12-18T05:33:02;18.40;45.40
5520;DHT22;2782;52.362;10.012;2022-12-18T05:34:04;18.40;45.40
5520;DHT22;2782;52.362;10.012;2022-12-18T05:35:07;18.40;45.40
5520;DHT22;2782;52.362;10.012;2022-12-18T05:36:09;18.40;45.40
5520;DHT22;2782;52.362;10.012;2022-12-18T05:37:10;18.40;45.40
5520;DHT22;2782;52.362;10.012;2022-12-18T05:38:11;18.40;45.40
5520;DHT22;2782;52.362;10.012;2022-12-18T05:39:12;18.40;45.40
5520;DHT22;2782;52.362;10.012;2022-12-18T05:40:14;18.40;45.50
5520;DHT22;2782;52.362;10.012;2022-12-18T05:41:15;18.40;46.10
5520;DHT22;2782;52.362;10.012;2022-12-18T05:42:16;18.40;45.50
5520;DHT22;2782;52.362;10.012;2022-12-18T05:43:17;18.40;45.60
5520;DHT22;2782;52.362;10.012;2022-12-18T05:44:19;18.40;45.60
5520;DHT22;2782;52.362;10.012;2022-12-18T05:45:20;18.40;45.60
5520;DHT22;2782;52.362;10.012;2022-12-18T05:46:21;18.40;45.60
5520;DHT22;2782;52.362;10.012;2022-12-18T05:47:24;18.40;45.60
5520;DHT22;2782;52.362;10.012;2022-12-18T05:48:25;18.40;45.60
5520;DHT22;2782;52.362;10.012;2022-12-18T05:49:26;18.40;45.60
5520;DHT22;2782;52.362;10.012;2022-12-18T05:50:28;18.40;45.70
5520;DHT22;2782;52.362;10.012;2022-12-18T05:51:29;18.50;45.80
5520;DHT22;2782;52.362;10.012;2022-12-18T05:52:30;18.40;45.70
5520;DHT22;2782;52.362;10.012;2022-12-18T05:53:31;18.50;45.80
5520;DHT22;2782;52.362;10.012;2022-12-18T05:54:33;18.50;45.80
5520;DHT22;2782;52.362;10.012;2022-12-18T05:55:34;18.50;45.80
5520;DHT22;2782;52.362;10.012;2022-12-18T05:56:36;18.50;45.80
5520;DHT22;2782;52.362;10.012;2022-12-18T05:57:37;18.50;45.80
5520;DHT22;2782;52.362;10.012;2022-12-18T05:58:39;18.50;45.90
5520;DHT22;2782;52.362;10.012;2022-12-18T05:59:39;18.50;45.90
5520;DHT22;2782;52.362;10.012;2022-12-18T06:00:44;18.50;45.90
5520;DHT22;2782;52.362;10.012;2022-12-18T06:01:45;18.60;45.90
5520;DHT22;2782;52.362;10.012;2022-12-18T06:02:49;18.50;45.90
5520;DHT22;2782;52.362;10.012;2022-12-18T06:03:49;18.60;46.00
5520;DHT22;2782;52.362;10.012;2022-12-18T06:04:51;18.60;46.00
5520;DHT22;2782;52.362;10.012;2022-12-18T06:05:52;18.60;46.00
5520;DHT22;2782;52.362;10.012;2022-12-18T06:06:54;18.60;46.00
5520;DHT22;2782;52.362;10.012;2022-12-18T06:07:54;18.60;45.90
5520;DHT22;2782;52.362;10.012;2022-12-18T06:08:56;18.60;45.60
5520;DHT22;2782;52.362;10.012;2022-12-18T06:09:57;18.60;45.70
5520;DHT22;2782;52.362;10.012;2022-12-18T06:10:59;18.60;45.80
5520;DHT22;2782;52.362;10.012;2022-12-18T06:11:59;18.60;45.80
5520;DHT22;2782;52.362;10.012;2022-12-18T06:13:01;18.60;45.90
5520;DHT22;2782;52.362;10.012;2022-12-18T06:14:03;18.60;45.90
5520;DHT22;2782;52.362;10.012;2022-12-18T06:15:06;18.60;45.80
5520;DHT22;2782;52.362;10.012;2022-12-18T06:16:07;18.60;45.80
5520;DHT22;2782;52.362;10.012;2022-12-18T06:17:09;18.50;45.80
5520;DHT22;2782;52.362;10.012;2022-12-18T06:18:11;18.50;45.80
5520;DHT22;2782;52.362;10.012;2022-12-18T06:19:15;18.50;45.70
5520;DHT22;2782;52.362;10.012;2022-12-18T06:20:16;18.50;45.70
5520;DHT22;2782;52.362;10.012;2022-12-18T06:21:18;18.50;45.60
5520;DHT22;2782;52.362;10.012;2022-12-18T06:22:18;18.50;45.60
5520;DHT22;2782;52.362;10.012;2022-12-18T06:23:20;18.50;45.50
5520;DHT22;2782;52.362;10.012;2022-12-18T06:24:21;18.50;45.60
5520;DHT22;2782;52.362;10.012;2022-12-18T06:25:22;18.50;45.50
5520;DHT22;2782;52.362;10.012;2022-12-18T06:26:23;18.50;45.50
5520;DHT22;2782;52.362;10.012;2022-12-18T06:27:25;18.50;45.50
5520;DHT22;2782;52.362;10.012;2022-12-18T06:28:27;18.50;45.40
5520;DHT22;2782;52.362;10.012;2022-12-18T06:29:27;18.50;45.50
5520;DHT22;2782;52.362;10.012;2022-12-18T06:30:29;18.50;45.50
5520;DHT22;2782;52.362;10.012;2022-12-18T06:31:30;18.50;45.50
5520;DHT22;2782;52.362;10.012;2022-12-18T06:32:32;18.50;45.40
5520;DHT22;2782;52.362;10.012;2022-12-18T06:33:34;18.50;45.40
5520;DHT22;2782;52.362;10.012;2022-12-18T06:34:37;18.50;45.30
5520;DHT22;2782;52.362;10.012;2022-12-18T06:35:38;18.50;45.40
5520;DHT22;2782;52.362;10.012;2022-12-18T06:36:39;18.50;45.40
5520;DHT22;2782;52.362;10.012;2022-12-18T06:37:40;18.50;45.40
5520;DHT22;2782;52.362;10.012;2022-12-18T06:38:43;18.50;45.40
5520;DHT22;2782;52.362;10.012;2022-12-18T06:39:44;18.50;45.40
5520;DHT22;2782;52.362;10.012;2022-12-18T06:40:45;18.50;45.40
5520;DHT22;2782;52.362;10.012;2022-12-18T06:41:46;18.40;45.40
5520;DHT22;2782;52.362;10.012;2022-12-18T06:42:48;18.40;45.30
5520;DHT22;2782;52.362;10.012;2022-12-18T06:43:49;18.40;45.30
5520;DHT22;2782;52.362;10.012;2022-12-18T06:44:51;18.40;45.40
5520;DHT22;2782;52.362;10.012;2022-12-18T06:45:58;18.40;45.40
5520;DHT22;2782;52.362;10.012;2022-12-18T06:47:00;18.40;45.40
5520;DHT22;2782;52.362;10.012;2022-12-18T06:48:01;18.40;45.40
5520;DHT22;2782;52.362;10.012;2022-12-18T06:49:04;18.40;45.40